Terminal Aerodrome Forecast
Issued by NWS

Home | Current Version | Previous Version | Text Only | Print | Product List | Glossary On
Versions: 1 2 3 4 5 6 7 8 9 10 11 12 13 14 15 16 17 18 19
000
FTUS43 KABR 282320
TAFMBG
TAF
KMBG 282320Z 2900/2924 02011KT P6SM SKC
     FM290300 04006KT P6SM FEW250
     FM290700 10005KT P6SM SCT200
     FM291100 13005KT P6SM BKN100
     FM291400 27006KT P6SM BKN080=

USA.gov is the U.S. government's official web portal to all federal, state and local government web resources and services.